WALL/BPN METAR and TAF weather

Enter ICAO airport designator
Station Type Date Time Source
WALL METAR 2019/08/20 00:00 UTC NOAA

WALL 200000Z 22013KT 9999 FEW018CB SCT01827/25 Q1012 RMK CB TO N


Station Type Date Time Source
WALL Decoded METAR 2019/08/20 00:00 UTC NOAA

Station name not available
Aug 19, 2019 - 08:00 PM EDT / 2019.08.20 0000 UTC
Wind: from the SW (220 degrees) at 15 MPH (13 KT):0
Visibility: greater than 7 mile(s):0
Sky conditions: partly cloudy
Weather: Cumulonimbus clouds observed
Pressure (altimeter): 29.88 in. Hg (1012 hPa)
ob: WALL 200000Z 22013KT 9999 FEW018CB SCT01827/25 Q1012 RMK CB TO N
cycle: 0

Station Type Date Time Source
WALL TAF 2019/08/24 18:00 UTC NOAA

TAF WALL 241700Z 2418/2524 21005KT 9000 SCT018
TEMPO 2422/2501 FEW017CB SCT018

Example: see airport list